Stations météo

réclame
Mon MeteoGroup
Stekenjokk, Suède (2102): Température de l'air & dewpoint: 14.09.2020 18:00:00 - 20.09.2020 18:00:00 (CEST)Stekenjokk, Suède (2102): Vitesse du vent & gusts: 14.09.2020 18:00:00 - 20.09.2020 18:00:00 (CEST)Stekenjokk, Suède (2102): Direction du vent: 14.09.2020 18:00:00 - 20.09.2020 18:00:00 (CEST)
Date & Time tt [°C] td [°C] ff [km/h] ff [knt] fx [km/h] fx [knt] dd
20.09.2020 18:00:00 0,1 0,0 68 37 86 47 WSW
20.09.2020 17:00:00 0,0 -0,1 53 28 79 42 WSW
20.09.2020 16:00:00 0,4 0,3 65 35 86 47 WSW
20.09.2020 15:00:00 0,8 0,7 62 33 82 44 WSW
20.09.2020 14:00:00 0,9 0,6 70 38 91 49 WSW
20.09.2020 13:00:00 0,3 0,2 61 33 94 51 W
20.09.2020 12:00:00 0,5 0,4 67 36 85 46 WSW
20.09.2020 11:00:00 0,5 0,1 57 31 113 61 W
20.09.2020 10:00:00 3,5 -0,2 86 47 119 64 W
20.09.2020 09:00:00 2,1 2,0 76 41 117 63 W
20.09.2020 08:00:00 3,2 3,1 66 35 81 44 WSW
20.09.2020 07:00:00 2,6 2,5 63 34 78 42 SW
20.09.2020 06:00:00 2,0 1,9 65 35 75 40 WSW
20.09.2020 05:00:00 1,8 1,6 63 34 77 41 WSW
20.09.2020 04:00:00 1,3 1,2 55 30 84 46 WSW
20.09.2020 03:00:00 1,1 1,0 65 35 77 42 WSW
20.09.2020 02:00:00 0,5 0,4 55 30 77 42 WSW
20.09.2020 01:00:00 0,9 0,8 29 16 47 25 WSW
20.09.2020 00:00:00 1,0 0,9 31 17 60 33 SW
19.09.2020 23:00:00 1,5 1,4 39 21 50 27 SW
19.09.2020 22:00:00 2,0 1,9 36 19 48 26 W
19.09.2020 21:00:00 2,0 1,6 39 21 55 30 WSW
19.09.2020 20:00:00 2,3 1,3 37 20 53 29 WSW
19.09.2020 19:00:00 2,4 1,4 47 26 56 31 W
19.09.2020 18:00:00 2,5 1,5 50 27 59 32 W
19.09.2020 17:00:00 3,2 1,2 37 20 59 32 W
19.09.2020 16:00:00 3,5 0,7 44 24 58 31 W
19.09.2020 15:00:00 3,2 2,2 44 24 52 28 W
19.09.2020 14:00:00 3,8 1,5 38 20 56 30 W
19.09.2020 13:00:00 4,4 1,5 43 23 65 35 W
19.09.2020 12:00:00 3,6 1,0 47 25 74 40 W
19.09.2020 11:00:00 3,3 1,5 57 31 70 38 W
19.09.2020 10:00:00 2,8 1,2 42 23 64 35 W
19.09.2020 09:00:00 2,3 1,0 53 29 72 39 WNW
19.09.2020 08:00:00 2,2 0,7 65 35 82 44 WNW
19.09.2020 07:00:00 2,3 0,8 45 24 64 35 W
19.09.2020 06:00:00 2,2 0,6 50 27 64 34 W
19.09.2020 05:00:00 2,1 0,7 47 26 64 34 W
19.09.2020 04:00:00 2,4 0,4 40 21 65 35 W
19.09.2020 03:00:00 2,7 -0,2 54 29 80 43 W
19.09.2020 02:00:00 2,5 0,4 40 21 82 44 W
19.09.2020 01:00:00 1,8 0,0 64 35 87 47 W
19.09.2020 00:00:00 2,1 -0,2 72 39 97 53 W
18.09.2020 23:00:00 1,4 1,3 71 38 97 52 W
18.09.2020 22:00:00 1,8 1,4 79 43 97 53 W
18.09.2020 21:00:00 1,1 1,0 71 38 97 52 W
18.09.2020 20:00:00 2,1 0,9 74 40 88 48 W
18.09.2020 19:00:00 2,3 0,7 66 36 83 45 W
18.09.2020 18:00:00 3,1 0,5 59 32 85 46 W
18.09.2020 17:00:00 3,6 1,3 65 35 80 43 W
18.09.2020 16:00:00 4,8 1,8 60 33 74 40 W
18.09.2020 15:00:00 4,7 2,4 46 25 69 38 W
18.09.2020 14:00:00 4,6 2,8 51 27 68 37 W
18.09.2020 13:00:00 3,9 3,0 36 19 58 32 W
18.09.2020 12:00:00 3,8 3,2 45 24 64 34 W
18.09.2020 11:00:00 3,8 3,5 39 21 65 35 W
18.09.2020 10:00:00 3,6 3,2 61 33 86 47 W
18.09.2020 09:00:00 4,5 4,4 66 36 105 57 W
18.09.2020 08:00:00 5,3 5,2 85 46 106 57 W
18.09.2020 07:00:00 5,6 5,5 88 47 108 59 WSW
18.09.2020 06:00:00 5,2 5,1 75 41 96 52 WSW
18.09.2020 05:00:00 4,6 4,5 82 44 106 57 WSW
18.09.2020 04:00:00 4,1 3,9 79 43 104 56 SW
18.09.2020 03:00:00 2,2 2,1 55 30 71 38 SW
18.09.2020 02:00:00 1,2 1,1 49 27 60 32 SW
18.09.2020 01:00:00 0,6 0,5 52 28 66 36 SW
18.09.2020 00:00:00 0,2 0,1 58 31 73 40 SW
17.09.2020 23:00:00 -0,4 -0,5 55 30 68 37 SW
17.09.2020 22:00:00 0,3 -1,3 51 27 60 32 WSW
17.09.2020 21:00:00 0,0 -0,1 32 18 39 21 SSW
17.09.2020 20:00:00 0,3 0,2 30 16 46 25 SW
17.09.2020 19:00:00 0,4 0,2 32 18 40 21 SW
17.09.2020 18:00:00 0,8 0,0 36 19 47 25 SW
17.09.2020 17:00:00 1,1 -0,1 27 15 35 19 SW
17.09.2020 16:00:00 1,3 0,1 32 18 36 19 SW
17.09.2020 15:00:00 1,4 -0,5 33 18 41 22 WSW
17.09.2020 14:00:00 1,8 -0,5 25 14 32 17 WSW
17.09.2020 13:00:00 2,0 0,1 19 10 29 16 W
17.09.2020 12:00:00 1,7 -0,9 13 7 29 16 WSW
17.09.2020 11:00:00 1,2 -0,9 20 11 27 14 WNW
17.09.2020 10:00:00 0,7 -1,1 14 8 27 15 NW
17.09.2020 09:00:00 0,1 -1,2 21 11 30 16 W
17.09.2020 08:00:00 -0,4 -1,0 12 7 31 17 WNW
17.09.2020 07:00:00 -0,5 -1,3 19 10 49 26 W
17.09.2020 06:00:00 -0,8 -1,9 44 24 56 30 NNW
17.09.2020 05:00:00 -0,7 -2,3 23 12 38 21 NW
17.09.2020 04:00:00 -0,8 -1,8 23 12 51 27 NNW
17.09.2020 03:00:00 -0,9 -1,9 34 19 63 34 NW
17.09.2020 02:00:00 -0,8 -2,5 24 13 45 25 NNW
17.09.2020 01:00:00 -0,7 -2,6 19 10 56 30 NNW
17.09.2020 00:00:00 -0,6 -2,8 41 22 66 36 NW
16.09.2020 23:00:00 -0,5 -1,8 53 28 63 34 NNW
16.09.2020 22:00:00 0,0 -1,0 41 22 60 33 NNW
16.09.2020 21:00:00 0,5 -0,9 51 27 73 39 NW
16.09.2020 20:00:00 0,8 -1,0 64 35 81 44 NNW
16.09.2020 19:00:00 1,0 -0,8 64 34 82 44 NNW
16.09.2020 18:00:00 1,6 -0,5 58 32 75 40 NNW
16.09.2020 17:00:00 2,1 -0,5 63 34 81 44 NNW
16.09.2020 16:00:00 1,9 -0,2 61 33 79 42 NNW
16.09.2020 15:00:00 1,7 -0,1 63 34 77 41 NNW
16.09.2020 14:00:00 1,5 0,8 50 27 71 39 NNW
16.09.2020 13:00:00 0,0 -0,1 58 31 76 41 NNW
16.09.2020 12:00:00 0,0 -0,1 59 32 72 39 NNW
16.09.2020 11:00:00 -0,1 -0,2 53 29 63 34 NNW
16.09.2020 10:00:00 - - - - - - -
16.09.2020 09:00:00 -0,3 -0,5 40 21 50 27 NNW
16.09.2020 08:00:00 -0,8 -0,9 35 19 54 29 N
16.09.2020 07:00:00 -0,7 -0,8 41 22 52 28 N
16.09.2020 06:00:00 -1,0 -1,1 31 17 40 21 N
16.09.2020 05:00:00 -1,1 -1,2 26 14 35 19 N
16.09.2020 04:00:00 -1,1 -1,2 28 15 34 19 N
16.09.2020 03:00:00 -0,6 -0,7 23 13 42 23 NNE
16.09.2020 02:00:00 0,2 0,1 32 17 43 23 NE
16.09.2020 01:00:00 0,8 0,6 18 10 22 12 NNE
16.09.2020 00:00:00 2,3 1,3 8 4 12 6 NE
15.09.2020 23:00:00 3,5 0,7 5 3 11 6 E
15.09.2020 22:00:00 3,0 1,0 7 4 11 6 ENE
15.09.2020 21:00:00 3,1 1,0 4 2 13 7 SSW
15.09.2020 20:00:00 3,1 1,6 8 4 16 8 SW
15.09.2020 19:00:00 3,2 1,8 15 8 18 10 SSW
15.09.2020 18:00:00 3,9 0,8 13 7 19 10 SW
15.09.2020 17:00:00 4,5 1,0 16 8 21 11 SW
15.09.2020 16:00:00 4,9 0,5 10 5 19 11 W
15.09.2020 15:00:00 5,0 0,8 16 9 28 15 W
15.09.2020 14:00:00 5,2 0,8 16 9 36 19 WSW
15.09.2020 13:00:00 4,5 1,0 27 14 36 19 W
15.09.2020 12:00:00 3,7 2,4 19 10 28 15 W
15.09.2020 11:00:00 3,2 3,1 21 12 28 15 WSW
15.09.2020 10:00:00 2,7 2,6 20 11 26 14 WSW
15.09.2020 09:00:00 1,9 1,8 19 10 26 14 WSW
15.09.2020 08:00:00 1,1 1,0 16 9 27 15 W
15.09.2020 07:00:00 1,5 1,4 22 12 26 14 WSW
15.09.2020 06:00:00 1,4 1,2 19 11 27 15 W
15.09.2020 05:00:00 1,5 1,4 23 12 33 18 W
15.09.2020 04:00:00 1,6 1,4 18 10 29 16 WNW
15.09.2020 03:00:00 1,8 1,7 23 12 31 17 W
15.09.2020 02:00:00 2,0 1,9 29 15 41 22 W
15.09.2020 01:00:00 1,7 1,6 32 17 56 31 W
15.09.2020 00:00:00 2,0 1,9 41 22 48 26 W
14.09.2020 23:00:00 2,0 1,9 41 22 51 28 W
14.09.2020 22:00:00 2,1 2,0 40 21 54 29 W
14.09.2020 21:00:00 2,1 2,0 41 22 53 29 WSW
14.09.2020 20:00:00 2,1 2,0 28 15 39 21 WSW
14.09.2020 19:00:00 2,1 2,0 29 16 61 33 SW
14.09.2020 18:00:00 2,0 1,7 52 28 65 35 WSW

tt = Température de l'air
td = dewpoint
ff = Vitesse du vent
fx = gusts
dd = Direction du vent

stations d'obs. à proximité